createdAt,value
2023-10-30T00:02:10.255Z,11.60
2023-10-30T00:04:48.102Z,13.40
2023-10-30T00:07:29.197Z,14.85
2023-10-30T00:10:00.895Z,10.30
2023-10-30T00:12:42.009Z,12.15
2023-10-30T00:15:19.347Z,10.32
2023-10-30T00:17:55.709Z,11.52
2023-10-30T00:20:33.268Z,16.23
2023-10-30T00:23:08.054Z,12.77
2023-10-30T00:25:40.385Z,12.82
2023-10-30T00:28:10.139Z,12.32
2023-10-30T00:30:42.826Z,12.73
2023-10-30T00:33:24.251Z,10.48
2023-10-30T00:36:02.842Z,6.43
2023-10-30T00:38:32.149Z,8.63
2023-10-30T00:41:06.705Z,10.05
2023-10-30T00:43:40.241Z,8.15
2023-10-30T00:46:14.298Z,10.35
2023-10-30T00:48:55.174Z,8.05
2023-10-30T00:51:24.236Z,13.40
2023-10-30T00:53:52.953Z,7.57
2023-10-30T00:56:24.813Z,7.60
2023-10-30T00:58:56.226Z,10.95
2023-10-30T01:01:35.589Z,10.13
2023-10-30T01:04:12.838Z,8.20
2023-10-30T01:06:44.165Z,10.95
2023-10-30T01:09:18.215Z,9.45
2023-10-30T01:11:47.862Z,11.93
2023-10-30T01:14:25.028Z,11.85
2023-10-30T01:16:58.644Z,12.25
2023-10-30T01:19:30.773Z,11.77
2023-10-30T01:22:03.394Z,12.55
2023-10-30T01:24:41.606Z,9.18
2023-10-30T01:27:11.347Z,12.27
2023-10-30T01:29:49.886Z,9.55
2023-10-30T01:32:22.180Z,9.90
2023-10-30T01:34:55.739Z,9.38
2023-10-30T01:37:26.160Z,8.23
2023-10-30T01:39:56.969Z,9.18
2023-10-30T01:42:29.885Z,7.65
2023-10-30T01:45:04.790Z,8.03
2023-10-30T01:47:36.485Z,8.35
2023-10-30T01:50:08.617Z,9.02
2023-10-30T01:52:42.678Z,6.50
2023-10-30T01:55:20.545Z,8.43
2023-10-30T01:57:55.358Z,7.18
2023-10-30T02:00:26.882Z,7.63
2023-10-30T02:03:02.510Z,11.90
2023-10-30T02:05:43.438Z,10.75
2023-10-30T02:08:18.979Z,10.05
2023-10-30T02:10:54.812Z,6.63
2023-10-30T02:13:33.051Z,4.78
2023-10-30T02:16:09.301Z,4.22
2023-10-30T02:18:45.044Z,11.25
2023-10-30T02:21:16.098Z,7.45
2023-10-30T02:23:54.747Z,7.38
2023-10-30T02:26:27.051Z,9.30
2023-10-30T02:29:07.448Z,6.28
2023-10-30T02:31:42.870Z,6.65
2023-10-30T02:34:33.346Z,6.95
2023-10-30T02:37:16.107Z,6.60
2023-10-30T02:39:47.022Z,12.23
2023-10-30T02:42:17.961Z,11.15
2023-10-30T02:44:55.214Z,12.60
2023-10-30T02:47:30.769Z,8.88
2023-10-30T02:50:06.247Z,7.50
2023-10-30T02:52:42.379Z,9.15
2023-10-30T02:55:13.269Z,7.95
2023-10-30T02:57:43.329Z,9.60
2023-10-30T03:00:13.609Z,7.53
2023-10-30T03:02:42.749Z,6.93
2023-10-30T03:05:15.949Z,8.75
2023-10-30T03:07:51.668Z,9.55
2023-10-30T03:10:26.064Z,7.07
2023-10-30T03:13:07.630Z,7.60
2023-10-30T03:15:37.275Z,8.32
2023-10-30T03:18:10.625Z,7.03
2023-10-30T03:20:49.547Z,6.78
2023-10-30T03:23:23.480Z,11.20
2023-10-30T03:25:54.458Z,8.23
2023-10-30T03:28:28.105Z,6.45
2023-10-30T03:30:57.941Z,6.70
2023-10-30T03:33:34.307Z,5.73
2023-10-30T03:36:07.953Z,6.90
2023-10-30T03:38:39.479Z,5.30
2023-10-30T03:41:15.805Z,7.60
2023-10-30T03:43:50.336Z,10.82
2023-10-30T03:46:28.927Z,11.60
2023-10-30T03:48:59.822Z,9.82
2023-10-30T03:51:28.474Z,13.95
2023-10-30T03:53:57.381Z,10.27
2023-10-30T03:56:25.507Z,9.38
2023-10-30T03:58:53.619Z,9.80
2023-10-30T04:01:24.393Z,7.88
2023-10-30T04:04:01.379Z,11.95
2023-10-30T04:06:33.253Z,7.35
2023-10-30T04:09:10.140Z,5.97
2023-10-30T04:11:40.014Z,11.52
2023-10-30T04:14:08.556Z,9.00
2023-10-30T04:16:39.665Z,8.15
2023-10-30T04:19:13.177Z,7.05
2023-10-30T04:21:46.434Z,6.53
2023-10-30T04:24:28.578Z,8.15
2023-10-30T04:26:58.131Z,10.88
2023-10-30T04:29:31.838Z,11.18
2023-10-30T04:32:02.023Z,11.45
2023-10-30T04:34:32.177Z,8.63
2023-10-30T04:37:10.909Z,11.52
2023-10-30T04:39:47.232Z,10.50
2023-10-30T04:42:25.356Z,8.18
2023-10-30T04:44:57.142Z,7.47
2023-10-30T04:47:34.938Z,8.73
2023-10-30T04:50:05.854Z,12.45
2023-10-30T04:52:37.092Z,9.32
2023-10-30T04:55:12.870Z,13.45
2023-10-30T04:57:41.518Z,13.82
2023-10-30T05:00:22.943Z,9.30
2023-10-30T05:02:52.822Z,10.90
2023-10-30T05:05:25.550Z,8.00
2023-10-30T05:07:57.925Z,6.68
2023-10-30T05:10:27.730Z,7.68
2023-10-30T05:12:58.509Z,8.13
2023-10-30T05:15:26.514Z,11.45
2023-10-30T05:17:54.540Z,9.75
2023-10-30T05:20:28.675Z,24.15
2023-10-30T05:23:01.997Z,24.25
2023-10-30T05:25:42.307Z,15.32
2023-10-30T05:28:15.159Z,18.25
2023-10-30T05:30:45.800Z,24.70
2023-10-30T05:33:14.697Z,18.60
2023-10-30T05:35:44.935Z,13.70
2023-10-30T05:38:22.823Z,29.45
2023-10-30T05:40:55.087Z,26.88
2023-10-30T05:43:26.440Z,11.45
2023-10-30T05:45:57.450Z,12.45
2023-10-30T05:48:27.581Z,11.38
2023-10-30T05:50:55.848Z,19.00
2023-10-30T05:53:31.606Z,16.42
2023-10-30T05:56:03.979Z,18.73
2023-10-30T05:58:32.098Z,19.42
2023-10-30T06:00:59.642Z,14.20
2023-10-30T06:03:36.738Z,14.25
2023-10-30T06:06:10.722Z,17.00
2023-10-30T06:08:38.645Z,16.33
2023-10-30T06:11:08.425Z,12.27
2023-10-30T06:13:38.095Z,13.25
2023-10-30T06:16:17.766Z,12.15
2023-10-30T06:18:49.143Z,15.60
2023-10-30T06:21:27.441Z,10.32
2023-10-30T06:24:05.015Z,11.50
2023-10-30T06:26:43.249Z,12.75
2023-10-30T06:29:15.286Z,10.93
2023-10-30T06:31:45.933Z,12.02
2023-10-30T06:34:17.467Z,13.20
2023-10-30T06:36:55.251Z,12.80
2023-10-30T06:39:27.314Z,9.55
2023-10-30T06:42:09.082Z,15.18
2023-10-30T06:44:39.784Z,12.00
2023-10-30T06:47:08.784Z,13.63
2023-10-30T06:49:38.405Z,14.90
2023-10-30T06:52:16.325Z,10.35
2023-10-30T06:54:47.353Z,10.70
2023-10-30T06:57:20.499Z,16.17
2023-10-30T06:59:54.161Z,12.82
2023-10-30T07:02:25.053Z,11.93
2023-10-30T07:04:55.804Z,19.95
2023-10-30T07:07:35.873Z,15.35
2023-10-30T07:10:14.080Z,19.27
2023-10-30T07:12:46.722Z,29.70
2023-10-30T07:15:20.712Z,14.25
2023-10-30T07:17:52.942Z,10.13
2023-10-30T07:20:22.052Z,10.25
2023-10-30T07:22:49.917Z,8.25
2023-10-30T07:25:18.829Z,13.73
2023-10-30T07:27:48.692Z,10.77
2023-10-30T07:30:22.801Z,18.85
2023-10-30T07:35:24.743Z,19.63
2023-10-30T07:37:56.165Z,14.73
2023-10-30T07:40:31.048Z,19.67
2023-10-30T07:45:30.547Z,21.05
2023-10-30T07:47:59.293Z,19.27
2023-10-30T07:50:37.466Z,15.30
2023-10-30T07:53:07.890Z,25.15
2023-10-30T07:55:38.325Z,21.60
2023-10-30T07:58:11.738Z,17.70
2023-10-30T08:00:57.382Z,16.60
2023-10-30T08:03:38.539Z,17.40
2023-10-30T08:06:09.004Z,17.75
2023-10-30T08:08:40.525Z,34.08
2023-10-30T08:11:16.416Z,26.35
2023-10-30T08:13:46.674Z,15.18
2023-10-30T08:16:17.510Z,13.88
2023-10-30T08:18:49.535Z,19.38
2023-10-30T08:21:20.787Z,12.73
2023-10-30T08:23:50.452Z,13.65
2023-10-30T08:26:29.717Z,13.15
2023-10-30T08:29:01.511Z,9.30
2023-10-30T08:31:29.776Z,16.38
2023-10-30T08:34:02.385Z,9.20
2023-10-30T08:36:33.354Z,8.45
2023-10-30T08:39:02.070Z,9.35
2023-10-30T08:41:31.410Z,9.13
2023-10-30T08:44:13.563Z,9.63
2023-10-30T08:46:51.194Z,8.35
2023-10-30T08:49:21.940Z,8.98
2023-10-30T08:52:03.268Z,10.80
2023-10-30T08:54:34.180Z,9.55
2023-10-30T08:57:16.634Z,7.57
2023-10-30T08:59:57.021Z,12.40
2023-10-30T09:02:27.914Z,5.90
2023-10-30T09:04:58.128Z,10.68
2023-10-30T09:07:35.484Z,8.18
2023-10-30T09:10:06.335Z,10.02
2023-10-30T09:12:40.493Z,6.55
2023-10-30T09:15:14.748Z,7.22
2023-10-30T09:17:46.502Z,10.13
2023-10-30T09:20:16.152Z,6.40
2023-10-30T09:22:44.730Z,8.85
2023-10-30T09:25:14.449Z,7.50
2023-10-30T09:27:43.355Z,7.00
2023-10-30T09:30:13.273Z,5.80
2023-10-30T09:32:43.867Z,6.10
2023-10-30T09:35:16.151Z,9.75
2023-10-30T09:37:44.565Z,4.93
2023-10-30T09:40:23.444Z,3.28
2023-10-30T09:42:54.851Z,4.22
2023-10-30T09:45:27.631Z,5.57
2023-10-30T09:48:05.696Z,3.80
2023-10-30T09:50:45.950Z,4.93
2023-10-30T09:53:26.257Z,16.08
2023-10-30T09:56:07.534Z,5.68
2023-10-30T09:58:43.891Z,4.88
2023-10-30T10:01:12.096Z,4.93
2023-10-30T10:03:43.004Z,4.78
2023-10-30T10:06:12.101Z,8.65
2023-10-30T10:08:45.503Z,6.55
2023-10-30T10:11:16.375Z,7.07
2023-10-30T10:14:04.107Z,5.15
2023-10-30T10:16:33.360Z,13.77
2023-10-30T10:19:41.993Z,14.10
2023-10-30T10:22:19.391Z,5.55
2023-10-30T10:24:49.590Z,7.45
2023-10-30T10:27:23.123Z,4.95
2023-10-30T10:30:00.170Z,4.45
2023-10-30T10:32:31.507Z,6.35
2023-10-30T10:35:04.129Z,13.52
2023-10-30T10:37:38.952Z,5.47
2023-10-30T10:40:20.088Z,4.57
2023-10-30T10:42:50.001Z,7.28
2023-10-30T10:45:21.547Z,5.55
2023-10-30T10:48:02.597Z,3.53
2023-10-30T10:50:30.530Z,6.40
2023-10-30T10:53:06.812Z,4.32
2023-10-30T10:55:51.252Z,6.30
2023-10-30T10:58:49.043Z,6.53
2023-10-30T11:01:25.345Z,6.65
2023-10-30T11:03:57.918Z,7.93
2023-10-30T11:06:39.329Z,10.43
2023-10-30T11:09:51.446Z,5.18
2023-10-30T11:13:05.299Z,3.65
2023-10-30T11:15:41.461Z,4.32
2023-10-30T11:18:30.013Z,2.72
2023-10-30T11:21:20.430Z,5.93
2023-10-30T11:24:03.203Z,6.72
2023-10-30T11:26:39.875Z,6.30
2023-10-30T11:29:19.325Z,3.15
2023-10-30T11:32:22.767Z,2.97
2023-10-30T11:34:53.290Z,3.20
2023-10-30T11:37:27.260Z,3.10
2023-10-30T11:39:58.440Z,2.33
2023-10-30T11:42:43.132Z,2.67
2023-10-30T11:45:41.180Z,3.58
2023-10-30T11:48:09.956Z,4.97
2023-10-30T11:50:49.887Z,4.13
2023-10-30T11:53:21.814Z,5.45
2023-10-30T11:56:13.448Z,4.43
2023-10-30T11:59:07.886Z,4.93
2023-10-30T12:01:40.016Z,1.63
2023-10-30T12:04:09.013Z,4.78
2023-10-30T12:06:42.268Z,3.70
2023-10-30T12:09:13.899Z,5.70
2023-10-30T12:11:43.355Z,4.20
2023-10-30T12:14:14.424Z,6.22
2023-10-30T12:17:00.210Z,2.27
2023-10-30T12:19:30.411Z,4.28
2023-10-30T12:21:59.083Z,3.85
2023-10-30T12:24:28.454Z,7.60
2023-10-30T12:27:00.447Z,3.70
2023-10-30T12:29:28.219Z,3.85
2023-10-30T12:32:08.814Z,3.25
2023-10-30T12:34:41.875Z,4.57
2023-10-30T12:37:25.579Z,5.70
2023-10-30T12:40:10.138Z,4.75
2023-10-30T12:42:49.802Z,3.23
2023-10-30T12:45:30.111Z,3.90
2023-10-30T12:48:04.568Z,3.95
2023-10-30T12:50:36.479Z,4.97
2023-10-30T12:53:09.614Z,8.73
2023-10-30T12:55:45.054Z,4.32
2023-10-30T12:58:27.368Z,7.03
2023-10-30T13:03:56.370Z,4.40
2023-10-30T13:06:37.322Z,6.93
2023-10-30T13:09:06.604Z,5.00
2023-10-30T13:11:37.297Z,7.00
2023-10-30T13:14:05.603Z,4.45
2023-10-30T13:16:36.839Z,7.00
2023-10-30T13:19:07.557Z,7.78
2023-10-30T13:21:45.786Z,10.93
2023-10-30T13:24:20.463Z,5.10
2023-10-30T13:26:50.205Z,6.00
2023-10-30T13:29:27.312Z,6.85
2023-10-30T13:31:59.927Z,8.68
2023-10-30T13:34:31.540Z,5.53
2023-10-30T13:37:04.310Z,7.60
2023-10-30T13:39:41.089Z,6.15
2023-10-30T13:42:13.658Z,4.93
2023-10-30T13:44:45.694Z,10.80
2023-10-30T13:47:21.613Z,7.18
2023-10-30T13:50:00.766Z,10.45
2023-10-30T13:52:40.482Z,5.57
2023-10-30T13:55:11.026Z,7.85
2023-10-30T13:57:41.861Z,10.02
2023-10-30T14:02:54.249Z,10.07
2023-10-30T14:05:26.524Z,10.27
2023-10-30T14:07:56.968Z,5.40
2023-10-30T14:10:30.286Z,5.88
2023-10-30T14:12:58.570Z,8.77
2023-10-30T14:15:37.768Z,10.70
2023-10-30T14:18:11.652Z,7.47
2023-10-30T14:20:41.654Z,11.38
2023-10-30T14:23:10.810Z,9.88
2023-10-30T14:25:41.429Z,5.53
2023-10-30T14:28:12.696Z,5.97
2023-10-30T14:30:40.986Z,11.48
2023-10-30T14:33:15.791Z,10.80
2023-10-30T14:35:45.442Z,12.38
2023-10-30T14:38:14.567Z,9.27
2023-10-30T14:40:46.159Z,8.05
2023-10-30T14:43:22.894Z,8.63
2023-10-30T14:45:52.960Z,9.27
2023-10-30T14:48:24.744Z,11.07
2023-10-30T14:50:56.881Z,10.35
2023-10-30T14:53:25.023Z,16.02
2023-10-30T14:55:56.926Z,10.27
2023-10-30T14:58:26.589Z,10.85
2023-10-30T15:00:54.682Z,9.35
2023-10-30T15:03:25.069Z,14.43
2023-10-30T15:06:04.609Z,11.60
2023-10-30T15:08:34.372Z,12.02
2023-10-30T15:11:08.189Z,14.88
2023-10-30T15:13:40.097Z,12.95
2023-10-30T15:16:20.557Z,10.15
2023-10-30T15:18:50.085Z,12.27
2023-10-30T15:21:20.121Z,12.65
2023-10-30T15:23:49.418Z,12.02
2023-10-30T15:26:16.962Z,12.32
2023-10-30T15:28:48.495Z,9.80
2023-10-30T15:31:26.838Z,11.63
2023-10-30T15:34:01.502Z,15.30
2023-10-30T15:36:33.582Z,14.65
2023-10-30T15:39:08.681Z,16.02
2023-10-30T15:44:11.398Z,13.55
2023-10-30T15:46:52.667Z,15.57
2023-10-30T15:49:32.877Z,10.65
2023-10-30T15:59:49.562Z,11.57
2023-10-30T16:02:18.905Z,19.75
2023-10-30T16:05:02.240Z,17.15
2023-10-30T16:07:35.035Z,20.17
2023-10-30T16:10:29.655Z,16.98
2023-10-30T16:13:02.753Z,11.25
2023-10-30T16:15:32.619Z,12.70
2023-10-30T16:20:38.832Z,16.10
2023-10-30T16:23:08.686Z,17.40
2023-10-30T16:25:47.490Z,13.02
2023-10-30T16:28:33.040Z,15.90
2023-10-30T16:31:03.485Z,14.93
2023-10-30T16:33:32.096Z,18.35
2023-10-30T16:36:11.026Z,15.13
2023-10-30T16:38:40.849Z,15.05
2023-10-30T16:41:12.303Z,13.65
2023-10-30T16:43:51.046Z,17.13
2023-10-30T16:46:23.825Z,14.38
2023-10-30T16:48:54.888Z,11.40
2023-10-30T16:51:26.844Z,15.48
2023-10-30T16:53:58.038Z,14.15
2023-10-30T16:56:34.496Z,15.85
2023-10-30T16:59:06.770Z,19.05
2023-10-30T17:01:38.882Z,16.20
2023-10-30T17:04:17.946Z,16.58
2023-10-30T17:06:53.531Z,20.08
2023-10-30T17:09:23.360Z,17.15
2023-10-30T17:11:59.783Z,16.25
2023-10-30T17:14:37.342Z,14.75
2023-10-30T17:17:09.804Z,19.48
2023-10-30T17:19:43.297Z,18.20
2023-10-30T17:22:15.699Z,21.30
2023-10-30T17:24:46.847Z,14.25
2023-10-30T17:27:25.924Z,17.20
2023-10-30T17:29:55.253Z,17.20
2023-10-30T17:32:28.195Z,15.02
2023-10-30T17:34:59.773Z,12.15
2023-10-30T17:37:39.808Z,19.42
2023-10-30T17:40:11.356Z,13.90
2023-10-30T17:42:41.230Z,14.68
2023-10-30T17:45:11.708Z,15.70
2023-10-30T17:47:41.991Z,17.45
2023-10-30T17:50:14.561Z,17.67
2023-10-30T17:52:44.713Z,14.50
2023-10-30T17:55:16.899Z,14.68
2023-10-30T17:57:49.275Z,15.45
2023-10-30T18:00:19.929Z,12.73
2023-10-30T18:02:51.796Z,14.48
2023-10-30T18:05:24.767Z,10.00
2023-10-30T18:08:00.751Z,12.10
2023-10-30T18:10:30.129Z,17.48
2023-10-30T18:12:58.280Z,16.73
2023-10-30T18:15:35.057Z,11.45
2023-10-30T18:18:06.418Z,12.45
2023-10-30T18:20:37.337Z,14.73
2023-10-30T18:23:14.176Z,9.03
2023-10-30T18:25:44.007Z,12.75
2023-10-30T18:28:24.475Z,12.07
2023-10-30T18:30:54.264Z,12.48
2023-10-30T18:33:25.043Z,13.02
2023-10-30T18:36:03.008Z,11.02
2023-10-30T18:38:40.865Z,11.02
2023-10-30T18:41:23.716Z,14.25
2023-10-30T18:44:04.817Z,15.55
2023-10-30T18:46:33.514Z,10.43
2023-10-30T18:49:08.542Z,13.00
2023-10-30T18:51:47.600Z,10.80
2023-10-30T18:54:19.726Z,16.42
2023-10-30T18:56:51.730Z,10.50
2023-10-30T18:59:22.795Z,11.52
2023-10-30T19:01:53.661Z,10.63
2023-10-30T19:04:24.468Z,9.57
2023-10-30T19:06:54.428Z,12.25
2023-10-30T19:09:24.947Z,12.05
2023-10-30T19:12:03.305Z,9.50
2023-10-30T19:14:32.397Z,13.48
2023-10-30T19:17:01.793Z,13.27
2023-10-30T19:19:34.437Z,14.25
2023-10-30T19:22:06.107Z,9.25
2023-10-30T19:24:37.525Z,11.70
2023-10-30T19:27:10.060Z,11.18
2023-10-30T19:29:40.710Z,9.48
2023-10-30T19:32:11.839Z,10.85
2023-10-30T19:34:45.103Z,12.20
2023-10-30T19:37:12.510Z,11.32
2023-10-30T19:39:41.887Z,12.15
2023-10-30T19:42:20.592Z,11.50
2023-10-30T19:44:55.063Z,10.40
2023-10-30T19:47:25.884Z,9.98
2023-10-30T19:49:58.140Z,13.52
2023-10-30T19:52:32.791Z,12.77
2023-10-30T19:55:11.201Z,11.23
2023-10-30T19:57:40.449Z,10.18
2023-10-30T20:00:19.699Z,12.93
2023-10-30T20:02:49.869Z,8.98
2023-10-30T20:05:36.418Z,11.35
2023-10-30T20:08:08.777Z,7.93
2023-10-30T20:10:42.911Z,10.10
2023-10-30T20:13:12.901Z,11.83
2023-10-30T20:15:43.977Z,11.48
2023-10-30T20:18:14.505Z,13.80
2023-10-30T20:20:45.377Z,12.30
2023-10-30T20:23:15.845Z,10.57
2023-10-30T20:25:45.957Z,9.98
2023-10-30T20:28:23.025Z,10.98
2023-10-30T20:30:52.108Z,11.70
2023-10-30T20:33:21.888Z,9.23
2023-10-30T20:36:01.452Z,12.40
2023-10-30T20:38:31.593Z,12.00
2023-10-30T20:41:07.639Z,9.48
2023-10-30T20:43:39.677Z,9.07
2023-10-30T20:46:18.675Z,9.20
2023-10-30T20:48:50.880Z,10.23
2023-10-30T20:51:25.051Z,9.40
2023-10-30T20:53:53.638Z,12.27
2023-10-30T20:56:31.345Z,10.15
2023-10-30T20:59:01.693Z,13.57
2023-10-30T21:01:39.220Z,8.57
2023-10-30T21:04:28.219Z,13.97
2023-10-30T21:07:26.239Z,9.23
2023-10-30T21:10:22.694Z,10.73
2023-10-30T21:12:56.514Z,10.38
2023-10-30T21:15:27.851Z,13.23
2023-10-30T21:18:05.947Z,6.30
2023-10-30T21:20:45.216Z,11.23
2023-10-30T21:23:18.864Z,11.90
2023-10-30T21:25:51.985Z,8.30
2023-10-30T21:28:29.699Z,10.00
2023-10-30T21:30:59.032Z,11.13
2023-10-30T21:33:34.117Z,13.38
2023-10-30T21:36:10.826Z,9.95
2023-10-30T21:38:43.817Z,13.18
2023-10-30T21:41:11.518Z,13.23
2023-10-30T21:43:48.276Z,38.80
2023-10-30T21:46:26.486Z,26.42
2023-10-30T21:49:05.635Z,10.20
2023-10-30T21:51:47.912Z,11.63
2023-10-30T21:54:16.952Z,10.55
2023-10-30T21:56:44.635Z,9.48
2023-10-30T21:59:17.981Z,12.75
2023-10-30T22:02:00.234Z,11.48
2023-10-30T22:04:40.776Z,8.43
2023-10-30T22:07:13.544Z,12.52
2023-10-30T22:09:51.726Z,10.60
2023-10-30T22:12:20.646Z,9.80
2023-10-30T22:14:50.816Z,11.30
2023-10-30T22:17:21.320Z,11.68
2023-10-30T22:19:53.708Z,12.23
2023-10-30T22:22:28.398Z,16.02
2023-10-30T22:25:00.711Z,9.48
2023-10-30T22:27:30.741Z,13.13
2023-10-30T22:30:00.506Z,9.65
2023-10-30T22:32:33.756Z,10.48
2023-10-30T22:35:04.591Z,8.23
2023-10-30T22:37:35.746Z,8.70
2023-10-30T22:40:12.799Z,11.77
2023-10-30T22:42:48.995Z,10.20
2023-10-30T22:45:29.773Z,13.65
2023-10-30T22:47:58.865Z,8.60
2023-10-30T22:50:29.384Z,10.95
2023-10-30T22:53:02.807Z,16.50
2023-10-30T22:55:40.110Z,15.88
2023-10-30T22:58:09.947Z,10.40
2023-10-30T23:00:46.810Z,8.63
2023-10-30T23:03:19.730Z,10.57
2023-10-30T23:05:56.743Z,6.85
2023-10-30T23:08:45.287Z,7.40
2023-10-30T23:11:13.841Z,8.15
2023-10-30T23:13:53.252Z,11.73
2023-10-30T23:16:22.440Z,15.88
2023-10-30T23:19:01.054Z,11.90
2023-10-30T23:21:29.956Z,9.25
2023-10-30T23:24:08.501Z,10.88
2023-10-30T23:26:40.528Z,11.27
2023-10-30T23:29:13.389Z,6.97
2023-10-30T23:31:42.437Z,12.75
2023-10-30T23:34:13.914Z,11.75
2023-10-30T23:36:51.557Z,11.82
2023-10-30T23:39:28.448Z,14.85
2023-10-30T23:41:59.948Z,13.88
2023-10-30T23:44:34.154Z,8.23
2023-10-30T23:47:16.216Z,11.05
2023-10-30T23:49:52.227Z,8.95
2023-10-30T23:52:29.741Z,10.07
2023-10-30T23:55:02.092Z,11.38
2023-10-30T23:57:36.563Z,14.48
